sensor_id;sensor_type;location;lat;lon;timestamp;temperature;humidity
52867;DHT22;38739;53.324;6.862;2023-06-14T00:01:47;16.10;98.70
52867;DHT22;38739;53.324;6.862;2023-06-14T00:04:13;16.00;98.70
52867;DHT22;38739;53.324;6.862;2023-06-14T00:06:39;16.00;99.00
52867;DHT22;38739;53.324;6.862;2023-06-14T00:09:05;16.00;99.30
52867;DHT22;38739;53.324;6.862;2023-06-14T00:11:31;16.00;99.60
52867;DHT22;38739;53.324;6.862;2023-06-14T00:13:57;15.90;99.90
52867;DHT22;38739;53.324;6.862;2023-06-14T00:16:23;15.90;99.90
52867;DHT22;38739;53.324;6.862;2023-06-14T00:18:49;15.90;99.90
52867;DHT22;38739;53.324;6.862;2023-06-14T00:21:17;15.90;99.90
52867;DHT22;38739;53.324;6.862;2023-06-14T00:23:43;15.80;99.90
52867;DHT22;38739;53.324;6.862;2023-06-14T00:26:09;15.80;99.90
52867;DHT22;38739;53.324;6.862;2023-06-14T00:28:34;15.80;99.90
52867;DHT22;38739;53.324;6.862;2023-06-14T00:31:00;15.70;99.90
52867;DHT22;38739;53.324;6.862;2023-06-14T00:33:26;15.70;99.90
52867;DHT22;38739;53.324;6.862;2023-06-14T00:35:51;15.60;99.90
52867;DHT22;38739;53.324;6.862;2023-06-14T00:38:20;15.60;99.90
52867;DHT22;38739;53.324;6.862;2023-06-14T00:40:46;15.60;99.90
52867;DHT22;38739;53.324;6.862;2023-06-14T00:43:12;15.60;99.90
52867;DHT22;38739;53.324;6.862;2023-06-14T00:45:38;15.50;99.90
52867;DHT22;38739;53.324;6.862;2023-06-14T00:48:04;15.50;99.90
52867;DHT22;38739;53.324;6.862;2023-06-14T00:50:32;15.50;99.90
52867;DHT22;38739;53.324;6.862;2023-06-14T00:52:59;15.50;99.90
52867;DHT22;38739;53.324;6.862;2023-06-14T00:55:27;15.50;99.90
52867;DHT22;38739;53.324;6.862;2023-06-14T00:57:54;15.40;99.90
52867;DHT22;38739;53.324;6.862;2023-06-14T01:00:20;15.40;99.90
52867;DHT22;38739;53.324;6.862;2023-06-14T01:02:46;15.40;99.90
52867;DHT22;38739;53.324;6.862;2023-06-14T01:05:12;15.30;99.90
52867;DHT22;38739;53.324;6.862;2023-06-14T01:13:20;15.30;99.90
52867;DHT22;38739;53.324;6.862;2023-06-14T01:15:47;15.20;99.90
52867;DHT22;38739;53.324;6.862;2023-06-14T01:18:13;15.20;99.90
52867;DHT22;38739;53.324;6.862;2023-06-14T01:20:46;15.20;99.90
52867;DHT22;38739;53.324;6.862;2023-06-14T01:23:20;15.20;99.90
52867;DHT22;38739;53.324;6.862;2023-06-14T01:25:46;15.20;99.90
52867;DHT22;38739;53.324;6.862;2023-06-14T01:28:14;15.20;99.90
52867;DHT22;38739;53.324;6.862;2023-06-14T01:30:44;15.10;99.90
52867;DHT22;38739;53.324;6.862;2023-06-14T01:33:18;15.10;99.90
52867;DHT22;38739;53.324;6.862;2023-06-14T01:35:47;15.10;99.90
52867;DHT22;38739;53.324;6.862;2023-06-14T01:38:14;15.00;99.90
52867;DHT22;38739;53.324;6.862;2023-06-14T01:40:44;15.00;99.90
52867;DHT22;38739;53.324;6.862;2023-06-14T01:43:13;15.00;99.90
52867;DHT22;38739;53.324;6.862;2023-06-14T01:45:40;15.10;99.90
52867;DHT22;38739;53.324;6.862;2023-06-14T01:48:07;15.00;99.90
52867;DHT22;38739;53.324;6.862;2023-06-14T01:50:32;15.00;99.90
52867;DHT22;38739;53.324;6.862;2023-06-14T01:52:58;15.00;99.90
52867;DHT22;38739;53.324;6.862;2023-06-14T01:55:24;15.00;99.90
52867;DHT22;38739;53.324;6.862;2023-06-14T01:57:53;14.90;99.90
52867;DHT22;38739;53.324;6.862;2023-06-14T02:00:19;14.90;99.90
52867;DHT22;38739;53.324;6.862;2023-06-14T02:02:45;15.00;99.90
52867;DHT22;38739;53.324;6.862;2023-06-14T02:05:11;14.90;99.90
52867;DHT22;38739;53.324;6.862;2023-06-14T02:07:37;14.90;99.90
52867;DHT22;38739;53.324;6.862;2023-06-14T02:10:04;14.80;99.90
52867;DHT22;38739;53.324;6.862;2023-06-14T02:12:30;14.80;99.90
52867;DHT22;38739;53.324;6.862;2023-06-14T02:14:56;14.80;99.90
52867;DHT22;38739;53.324;6.862;2023-06-14T02:17:23;14.80;99.90
52867;DHT22;38739;53.324;6.862;2023-06-14T02:19:48;14.70;99.90
52867;DHT22;38739;53.324;6.862;2023-06-14T02:22:15;14.70;99.90
52867;DHT22;38739;53.324;6.862;2023-06-14T02:24:41;14.70;99.90
52867;DHT22;38739;53.324;6.862;2023-06-14T02:27:07;14.70;99.90
52867;DHT22;38739;53.324;6.862;2023-06-14T02:29:36;14.60;99.90
52867;DHT22;38739;53.324;6.862;2023-06-14T02:32:02;14.60;99.90
52867;DHT22;38739;53.324;6.862;2023-06-14T02:34:28;14.60;99.90
52867;DHT22;38739;53.324;6.862;2023-06-14T02:36:54;14.60;99.90
52867;DHT22;38739;53.324;6.862;2023-06-14T02:39:20;14.60;99.90
52867;DHT22;38739;53.324;6.862;2023-06-14T02:41:51;14.60;99.90
52867;DHT22;38739;53.324;6.862;2023-06-14T02:44:24;14.50;99.90
52867;DHT22;38739;53.324;6.862;2023-06-14T02:46:51;14.50;99.90
52867;DHT22;38739;53.324;6.862;2023-06-14T02:49:16;14.50;99.90
52867;DHT22;38739;53.324;6.862;2023-06-14T02:51:42;14.50;99.90
52867;DHT22;38739;53.324;6.862;2023-06-14T02:54:07;14.50;99.90
52867;DHT22;38739;53.324;6.862;2023-06-14T02:56:33;14.50;99.90
52867;DHT22;38739;53.324;6.862;2023-06-14T02:58:59;14.50;99.90
52867;DHT22;38739;53.324;6.862;2023-06-14T03:01:26;14.50;99.90
52867;DHT22;38739;53.324;6.862;2023-06-14T03:04:03;14.40;99.90
52867;DHT22;38739;53.324;6.862;2023-06-14T03:06:29;14.40;99.90
52867;DHT22;38739;53.324;6.862;2023-06-14T03:08:57;14.40;99.90
52867;DHT22;38739;53.324;6.862;2023-06-14T03:11:27;14.40;99.90
52867;DHT22;38739;53.324;6.862;2023-06-14T03:13:53;14.40;99.90
52867;DHT22;38739;53.324;6.862;2023-06-14T03:16:19;14.40;99.90
52867;DHT22;38739;53.324;6.862;2023-06-14T03:18:51;14.40;99.90
52867;DHT22;38739;53.324;6.862;2023-06-14T03:21:17;14.30;99.90
52867;DHT22;38739;53.324;6.862;2023-06-14T03:23:44;14.30;99.90
52867;DHT22;38739;53.324;6.862;2023-06-14T03:26:10;14.30;99.90
52867;DHT22;38739;53.324;6.862;2023-06-14T03:28:39;14.30;99.90
52867;DHT22;38739;53.324;6.862;2023-06-14T03:31:05;14.30;99.90
52867;DHT22;38739;53.324;6.862;2023-06-14T03:33:31;14.20;99.90
52867;DHT22;38739;53.324;6.862;2023-06-14T03:35:57;14.20;99.90
52867;DHT22;38739;53.324;6.862;2023-06-14T03:38:23;14.20;99.90
52867;DHT22;38739;53.324;6.862;2023-06-14T03:40:48;14.20;99.90
52867;DHT22;38739;53.324;6.862;2023-06-14T03:43:14;14.20;99.90
52867;DHT22;38739;53.324;6.862;2023-06-14T03:45:40;14.20;99.90
52867;DHT22;38739;53.324;6.862;2023-06-14T03:48:06;14.20;99.90
52867;DHT22;38739;53.324;6.862;2023-06-14T03:50:34;14.20;99.90
52867;DHT22;38739;53.324;6.862;2023-06-14T03:53:00;14.20;99.90
52867;DHT22;38739;53.324;6.862;2023-06-14T03:55:26;14.20;99.90
52867;DHT22;38739;53.324;6.862;2023-06-14T03:57:53;14.20;99.90
52867;DHT22;38739;53.324;6.862;2023-06-14T04:00:19;14.20;99.90
52867;DHT22;38739;53.324;6.862;2023-06-14T04:02:45;14.20;99.90
52867;DHT22;38739;53.324;6.862;2023-06-14T04:05:11;14.20;99.90
52867;DHT22;38739;53.324;6.862;2023-06-14T04:07:36;14.20;99.90
52867;DHT22;38739;53.324;6.862;2023-06-14T04:10:06;14.30;99.90
52867;DHT22;38739;53.324;6.862;2023-06-14T04:12:33;14.30;99.90
52867;DHT22;38739;53.324;6.862;2023-06-14T04:14:59;14.30;99.90
52867;DHT22;38739;53.324;6.862;2023-06-14T04:17:26;14.30;99.90
52867;DHT22;38739;53.324;6.862;2023-06-14T04:19:52;14.30;99.90
52867;DHT22;38739;53.324;6.862;2023-06-14T04:22:17;14.30;99.90
52867;DHT22;38739;53.324;6.862;2023-06-14T04:24:43;14.30;99.90
52867;DHT22;38739;53.324;6.862;2023-06-14T04:27:10;14.40;99.90
52867;DHT22;38739;53.324;6.862;2023-06-14T04:29:36;14.50;99.90
52867;DHT22;38739;53.324;6.862;2023-06-14T04:32:02;14.50;99.90
52867;DHT22;38739;53.324;6.862;2023-06-14T04:34:28;14.60;99.90
52867;DHT22;38739;53.324;6.862;2023-06-14T04:36:59;14.60;99.90
52867;DHT22;38739;53.324;6.862;2023-06-14T04:39:26;14.70;99.90
52867;DHT22;38739;53.324;6.862;2023-06-14T04:41:53;14.80;99.90
52867;DHT22;38739;53.324;6.862;2023-06-14T04:44:23;14.80;99.90
52867;DHT22;38739;53.324;6.862;2023-06-14T04:46:56;14.80;99.90
52867;DHT22;38739;53.324;6.862;2023-06-14T04:49:24;14.90;99.90
52867;DHT22;38739;53.324;6.862;2023-06-14T04:51:50;14.90;99.90
52867;DHT22;38739;53.324;6.862;2023-06-14T04:54:23;15.00;99.90
52867;DHT22;38739;53.324;6.862;2023-06-14T04:56:51;15.00;99.90
52867;DHT22;38739;53.324;6.862;2023-06-14T04:59:17;15.10;99.90
52867;DHT22;38739;53.324;6.862;2023-06-14T05:01:43;15.10;99.90
52867;DHT22;38739;53.324;6.862;2023-06-14T05:04:20;15.20;99.90
52867;DHT22;38739;53.324;6.862;2023-06-14T05:06:47;15.20;99.90
52867;DHT22;38739;53.324;6.862;2023-06-14T05:09:14;15.20;99.90
52867;DHT22;38739;53.324;6.862;2023-06-14T05:11:41;15.30;99.90
52867;DHT22;38739;53.324;6.862;2023-06-14T05:14:13;15.40;99.90
52867;DHT22;38739;53.324;6.862;2023-06-14T05:16:38;15.40;99.90
52867;DHT22;38739;53.324;6.862;2023-06-14T05:19:04;15.50;99.90
52867;DHT22;38739;53.324;6.862;2023-06-14T05:21:31;15.50;99.90
52867;DHT22;38739;53.324;6.862;2023-06-14T05:23:59;15.60;99.90
52867;DHT22;38739;53.324;6.862;2023-06-14T05:26:25;15.60;99.90
52867;DHT22;38739;53.324;6.862;2023-06-14T05:28:55;15.70;99.90
52867;DHT22;38739;53.324;6.862;2023-06-14T05:31:22;15.70;99.90
52867;DHT22;38739;53.324;6.862;2023-06-14T05:33:49;15.80;99.90
52867;DHT22;38739;53.324;6.862;2023-06-14T05:36:15;15.80;99.90
52867;DHT22;38739;53.324;6.862;2023-06-14T05:38:41;15.80;99.90
52867;DHT22;38739;53.324;6.862;2023-06-14T05:41:06;15.90;99.90
52867;DHT22;38739;53.324;6.862;2023-06-14T05:43:32;15.90;99.90
52867;DHT22;38739;53.324;6.862;2023-06-14T05:45:58;15.90;99.90
52867;DHT22;38739;53.324;6.862;2023-06-14T05:48:24;16.00;99.90
52867;DHT22;38739;53.324;6.862;2023-06-14T05:50:49;16.00;99.90
52867;DHT22;38739;53.324;6.862;2023-06-14T05:53:15;16.00;99.90
52867;DHT22;38739;53.324;6.862;2023-06-14T05:55:41;16.10;99.90
52867;DHT22;38739;53.324;6.862;2023-06-14T05:58:07;16.20;99.90
52867;DHT22;38739;53.324;6.862;2023-06-14T06:00:32;16.20;99.90
52867;DHT22;38739;53.324;6.862;2023-06-14T06:02:58;16.30;99.90
52867;DHT22;38739;53.324;6.862;2023-06-14T06:05:24;16.30;99.90
52867;DHT22;38739;53.324;6.862;2023-06-14T06:07:50;16.40;99.90
52867;DHT22;38739;53.324;6.862;2023-06-14T06:10:16;16.40;99.90
52867;DHT22;38739;53.324;6.862;2023-06-14T06:12:42;16.40;99.90
52867;DHT22;38739;53.324;6.862;2023-06-14T06:15:08;16.50;99.90
52867;DHT22;38739;53.324;6.862;2023-06-14T06:17:37;16.50;99.90
52867;DHT22;38739;53.324;6.862;2023-06-14T06:20:04;16.60;99.90
52867;DHT22;38739;53.324;6.862;2023-06-14T06:22:31;16.70;99.90
52867;DHT22;38739;53.324;6.862;2023-06-14T06:24:57;16.80;99.90
52867;DHT22;38739;53.324;6.862;2023-06-14T06:27:22;16.90;99.90
52867;DHT22;38739;53.324;6.862;2023-06-14T06:29:48;17.00;99.90
52867;DHT22;38739;53.324;6.862;2023-06-14T06:32:15;17.10;99.90
52867;DHT22;38739;53.324;6.862;2023-06-14T06:34:41;17.20;99.90
52867;DHT22;38739;53.324;6.862;2023-06-14T06:37:06;17.30;99.90
52867;DHT22;38739;53.324;6.862;2023-06-14T06:39:33;17.40;99.90
52867;DHT22;38739;53.324;6.862;2023-06-14T06:41:58;17.50;99.90
52867;DHT22;38739;53.324;6.862;2023-06-14T06:44:24;17.70;99.90
52867;DHT22;38739;53.324;6.862;2023-06-14T06:46:50;17.80;99.90
52867;DHT22;38739;53.324;6.862;2023-06-14T06:49:15;17.90;99.90
52867;DHT22;38739;53.324;6.862;2023-06-14T06:51:42;18.00;99.90
52867;DHT22;38739;53.324;6.862;2023-06-14T06:54:11;18.10;99.90
52867;DHT22;38739;53.324;6.862;2023-06-14T06:56:37;18.20;99.90
52867;DHT22;38739;53.324;6.862;2023-06-14T06:59:02;18.30;99.90
52867;DHT22;38739;53.324;6.862;2023-06-14T07:01:28;18.40;99.90
52867;DHT22;38739;53.324;6.862;2023-06-14T07:03:55;18.50;99.90
52867;DHT22;38739;53.324;6.862;2023-06-14T07:06:21;18.70;99.90
52867;DHT22;38739;53.324;6.862;2023-06-14T07:08:47;18.80;99.90
52867;DHT22;38739;53.324;6.862;2023-06-14T07:11:15;18.90;99.90
52867;DHT22;38739;53.324;6.862;2023-06-14T07:13:41;19.20;99.90
52867;DHT22;38739;53.324;6.862;2023-06-14T07:16:06;19.30;99.90
52867;DHT22;38739;53.324;6.862;2023-06-14T07:18:32;19.50;99.90
52867;DHT22;38739;53.324;6.862;2023-06-14T07:20:58;19.70;99.90
52867;DHT22;38739;53.324;6.862;2023-06-14T07:23:23;19.90;99.90
52867;DHT22;38739;53.324;6.862;2023-06-14T07:25:49;20.00;99.90
52867;DHT22;38739;53.324;6.862;2023-06-14T07:28:16;20.30;99.90
52867;DHT22;38739;53.324;6.862;2023-06-14T07:30:43;20.50;99.90
52867;DHT22;38739;53.324;6.862;2023-06-14T07:33:09;20.80;99.90
52867;DHT22;38739;53.324;6.862;2023-06-14T07:35:35;21.00;99.90
52867;DHT22;38739;53.324;6.862;2023-06-14T07:38:01;21.30;99.90
52867;DHT22;38739;53.324;6.862;2023-06-14T07:40:27;21.60;99.90
52867;DHT22;38739;53.324;6.862;2023-06-14T07:42:53;21.90;99.90
52867;DHT22;38739;53.324;6.862;2023-06-14T07:45:20;22.10;99.90
52867;DHT22;38739;53.324;6.862;2023-06-14T07:47:46;22.30;99.90
52867;DHT22;38739;53.324;6.862;2023-06-14T07:50:12;22.30;97.60
52867;DHT22;38739;53.324;6.862;2023-06-14T07:52:39;22.50;95.30
52867;DHT22;38739;53.324;6.862;2023-06-14T07:55:05;22.50;94.90
52867;DHT22;38739;53.324;6.862;2023-06-14T07:57:31;22.70;95.20
52867;DHT22;38739;53.324;6.862;2023-06-14T07:59:56;22.80;95.00
52867;DHT22;38739;53.324;6.862;2023-06-14T08:02:22;23.00;95.20
52867;DHT22;38739;53.324;6.862;2023-06-14T08:04:48;23.30;95.20
52867;DHT22;38739;53.324;6.862;2023-06-14T08:07:14;23.60;95.60
52867;DHT22;38739;53.324;6.862;2023-06-14T08:09:40;23.90;94.20
52867;DHT22;38739;53.324;6.862;2023-06-14T08:12:06;24.00;93.00
52867;DHT22;38739;53.324;6.862;2023-06-14T08:14:35;24.10;92.50
52867;DHT22;38739;53.324;6.862;2023-06-14T08:17:01;24.30;92.30
52867;DHT22;38739;53.324;6.862;2023-06-14T08:19:27;24.40;91.20
52867;DHT22;38739;53.324;6.862;2023-06-14T08:21:53;24.60;90.80
52867;DHT22;38739;53.324;6.862;2023-06-14T08:24:23;24.80;90.70
52867;DHT22;38739;53.324;6.862;2023-06-14T08:26:54;24.90;89.60
52867;DHT22;38739;53.324;6.862;2023-06-14T08:29:19;24.90;88.60
52867;DHT22;38739;53.324;6.862;2023-06-14T08:31:46;24.90;85.90
52867;DHT22;38739;53.324;6.862;2023-06-14T08:34:12;25.00;85.50
52867;DHT22;38739;53.324;6.862;2023-06-14T08:36:37;24.90;83.50
52867;DHT22;38739;53.324;6.862;2023-06-14T08:39:03;25.00;84.60
52867;DHT22;38739;53.324;6.862;2023-06-14T08:41:29;25.20;83.00
52867;DHT22;38739;53.324;6.862;2023-06-14T08:43:56;25.40;83.90
52867;DHT22;38739;53.324;6.862;2023-06-14T08:46:25;25.50;82.50
52867;DHT22;38739;53.324;6.862;2023-06-14T08:48:54;25.40;81.10
52867;DHT22;38739;53.324;6.862;2023-06-14T08:51:20;25.60;79.90
52867;DHT22;38739;53.324;6.862;2023-06-14T08:53:55;25.70;78.90
52867;DHT22;38739;53.324;6.862;2023-06-14T08:56:28;25.90;77.90
52867;DHT22;38739;53.324;6.862;2023-06-14T08:58:55;26.00;76.00
52867;DHT22;38739;53.324;6.862;2023-06-14T09:01:22;26.00;75.80
52867;DHT22;38739;53.324;6.862;2023-06-14T09:03:49;25.90;74.40
52867;DHT22;38739;53.324;6.862;2023-06-14T09:06:16;25.90;75.00
52867;DHT22;38739;53.324;6.862;2023-06-14T09:08:51;26.00;75.00
52867;DHT22;38739;53.324;6.862;2023-06-14T09:11:18;26.10;72.10
52867;DHT22;38739;53.324;6.862;2023-06-14T09:13:45;26.10;73.30
52867;DHT22;38739;53.324;6.862;2023-06-14T09:16:12;26.10;73.40
52867;DHT22;38739;53.324;6.862;2023-06-14T09:18:46;26.20;73.70
52867;DHT22;38739;53.324;6.862;2023-06-14T09:21:16;26.50;73.60
52867;DHT22;38739;53.324;6.862;2023-06-14T09:23:47;26.60;71.90
52867;DHT22;38739;53.324;6.862;2023-06-14T09:26:15;26.90;73.20
52867;DHT22;38739;53.324;6.862;2023-06-14T09:28:42;27.00;71.30
52867;DHT22;38739;53.324;6.862;2023-06-14T09:31:09;27.10;70.10
52867;DHT22;38739;53.324;6.862;2023-06-14T09:33:35;27.30;70.90
52867;DHT22;38739;53.324;6.862;2023-06-14T09:36:01;27.30;70.40
52867;DHT22;38739;53.324;6.862;2023-06-14T09:38:27;27.20;70.00
52867;DHT22;38739;53.324;6.862;2023-06-14T09:40:54;27.50;70.50
52867;DHT22;38739;53.324;6.862;2023-06-14T09:43:21;27.70;67.60
52867;DHT22;38739;53.324;6.862;2023-06-14T09:45:48;27.70;68.30
52867;DHT22;38739;53.324;6.862;2023-06-14T09:48:14;27.80;68.10
52867;DHT22;38739;53.324;6.862;2023-06-14T09:50:45;28.00;67.50
52867;DHT22;38739;53.324;6.862;2023-06-14T09:53:12;28.10;67.00
52867;DHT22;38739;53.324;6.862;2023-06-14T09:55:40;28.00;66.10
52867;DHT22;38739;53.324;6.862;2023-06-14T09:58:08;28.10;66.70
52867;DHT22;38739;53.324;6.862;2023-06-14T10:00:35;28.40;65.60
52867;DHT22;38739;53.324;6.862;2023-06-14T10:03:28;28.40;65.10
52867;DHT22;38739;53.324;6.862;2023-06-14T10:05:58;28.20;63.20
52867;DHT22;38739;53.324;6.862;2023-06-14T10:08:27;28.30;64.70
52867;DHT22;38739;53.324;6.862;2023-06-14T10:10:58;28.60;64.90
52867;DHT22;38739;53.324;6.862;2023-06-14T10:13:25;28.90;63.50
52867;DHT22;38739;53.324;6.862;2023-06-14T10:16:05;29.00;63.10
52867;DHT22;38739;53.324;6.862;2023-06-14T10:18:50;29.20;61.80
52867;DHT22;38739;53.324;6.862;2023-06-14T10:24:04;28.80;61.90
52867;DHT22;38739;53.324;6.862;2023-06-14T10:26:30;28.90;62.30
52867;DHT22;38739;53.324;6.862;2023-06-14T10:29:05;28.80;61.70
52867;DHT22;38739;53.324;6.862;2023-06-14T10:31:48;29.00;62.30
52867;DHT22;38739;53.324;6.862;2023-06-14T10:39:29;29.40;61.30
52867;DHT22;38739;53.324;6.862;2023-06-14T10:41:56;29.60;62.30
52867;DHT22;38739;53.324;6.862;2023-06-14T10:46:49;29.60;60.10
52867;DHT22;38739;53.324;6.862;2023-06-14T10:49:18;29.70;60.00
52867;DHT22;38739;53.324;6.862;2023-06-14T10:51:51;29.60;59.60
52867;DHT22;38739;53.324;6.862;2023-06-14T10:54:21;29.30;59.30
52867;DHT22;38739;53.324;6.862;2023-06-14T10:56:52;29.40;60.00
52867;DHT22;38739;53.324;6.862;2023-06-14T10:59:19;29.30;60.70
52867;DHT22;38739;53.324;6.862;2023-06-14T11:01:58;29.50;60.90
52867;DHT22;38739;53.324;6.862;2023-06-14T11:04:47;29.90;61.30
52867;DHT22;38739;53.324;6.862;2023-06-14T11:12:36;29.80;57.50
52867;DHT22;38739;53.324;6.862;2023-06-14T11:15:05;29.70;58.90
52867;DHT22;38739;53.324;6.862;2023-06-14T11:17:33;30.10;60.80
52867;DHT22;38739;53.324;6.862;2023-06-14T11:20:12;30.40;59.40
52867;DHT22;38739;53.324;6.862;2023-06-14T11:22:45;30.40;57.30
52867;DHT22;38739;53.324;6.862;2023-06-14T11:25:14;30.50;57.80
52867;DHT22;38739;53.324;6.862;2023-06-14T11:27:43;30.60;58.20
52867;DHT22;38739;53.324;6.862;2023-06-14T11:30:09;30.60;59.50
52867;DHT22;38739;53.324;6.862;2023-06-14T11:32:36;30.70;58.20
52867;DHT22;38739;53.324;6.862;2023-06-14T11:35:03;31.00;58.00
52867;DHT22;38739;53.324;6.862;2023-06-14T11:37:31;31.00;58.50
52867;DHT22;38739;53.324;6.862;2023-06-14T11:40:01;31.20;56.10
52867;DHT22;38739;53.324;6.862;2023-06-14T11:42:27;31.40;56.00
52867;DHT22;38739;53.324;6.862;2023-06-14T11:44:54;31.60;56.80
52867;DHT22;38739;53.324;6.862;2023-06-14T11:47:20;31.50;55.10
52867;DHT22;38739;53.324;6.862;2023-06-14T11:49:47;31.30;54.70
52867;DHT22;38739;53.324;6.862;2023-06-14T11:52:13;31.50;55.80
52867;DHT22;38739;53.324;6.862;2023-06-14T11:54:39;31.50;56.00
52867;DHT22;38739;53.324;6.862;2023-06-14T11:57:08;31.50;54.30
52867;DHT22;38739;53.324;6.862;2023-06-14T11:59:40;31.00;54.10
52867;DHT22;38739;53.324;6.862;2023-06-14T12:02:07;31.10;56.50
52867;DHT22;38739;53.324;6.862;2023-06-14T12:04:33;31.60;55.40
52867;DHT22;38739;53.324;6.862;2023-06-14T12:07:12;31.90;55.00
52867;DHT22;38739;53.324;6.862;2023-06-14T12:09:41;32.00;54.90
52867;DHT22;38739;53.324;6.862;2023-06-14T12:12:09;32.30;55.50
52867;DHT22;38739;53.324;6.862;2023-06-14T12:14:36;32.60;53.80
52867;DHT22;38739;53.324;6.862;2023-06-14T12:17:05;32.40;52.60
52867;DHT22;38739;53.324;6.862;2023-06-14T12:19:45;32.50;52.40
52867;DHT22;38739;53.324;6.862;2023-06-14T12:22:12;32.30;52.80
52867;DHT22;38739;53.324;6.862;2023-06-14T12:24:38;32.60;52.60
52867;DHT22;38739;53.324;6.862;2023-06-14T12:27:05;32.60;52.20
52867;DHT22;38739;53.324;6.862;2023-06-14T12:29:31;32.70;51.60
52867;DHT22;38739;53.324;6.862;2023-06-14T12:31:57;32.40;51.80
52867;DHT22;38739;53.324;6.862;2023-06-14T12:34:24;32.70;53.30
52867;DHT22;38739;53.324;6.862;2023-06-14T12:36:56;32.50;52.40
52867;DHT22;38739;53.324;6.862;2023-06-14T12:39:22;32.70;51.60
52867;DHT22;38739;53.324;6.862;2023-06-14T12:41:48;32.50;52.70
52867;DHT22;38739;53.324;6.862;2023-06-14T12:44:15;32.70;53.40
52867;DHT22;38739;53.324;6.862;2023-06-14T12:46:41;32.80;53.20
52867;DHT22;38739;53.324;6.862;2023-06-14T12:49:09;33.00;52.40
52867;DHT22;38739;53.324;6.862;2023-06-14T12:51:35;33.20;52.40
52867;DHT22;38739;53.324;6.862;2023-06-14T12:54:00;33.50;51.90
52867;DHT22;38739;53.324;6.862;2023-06-14T12:56:26;33.30;51.20
52867;DHT22;38739;53.324;6.862;2023-06-14T12:58:52;32.90;52.20
52867;DHT22;38739;53.324;6.862;2023-06-14T13:01:19;33.00;53.40
52867;DHT22;38739;53.324;6.862;2023-06-14T13:03:46;33.20;52.70
52867;DHT22;38739;53.324;6.862;2023-06-14T13:06:12;33.40;52.30
52867;DHT22;38739;53.324;6.862;2023-06-14T13:08:37;33.40;52.30
52867;DHT22;38739;53.324;6.862;2023-06-14T13:11:03;33.30;52.20
52867;DHT22;38739;53.324;6.862;2023-06-14T13:13:29;33.30;51.90
52867;DHT22;38739;53.324;6.862;2023-06-14T13:15:54;33.40;51.30
52867;DHT22;38739;53.324;6.862;2023-06-14T13:18:20;33.40;51.20
52867;DHT22;38739;53.324;6.862;2023-06-14T13:20:47;33.40;50.60
52867;DHT22;38739;53.324;6.862;2023-06-14T13:23:13;33.50;51.00
52867;DHT22;38739;53.324;6.862;2023-06-14T13:25:39;33.40;51.50
52867;DHT22;38739;53.324;6.862;2023-06-14T13:28:11;33.20;50.20
52867;DHT22;38739;53.324;6.862;2023-06-14T13:30:37;32.60;50.00
52867;DHT22;38739;53.324;6.862;2023-06-14T13:33:02;32.30;51.70
52867;DHT22;38739;53.324;6.862;2023-06-14T13:35:28;32.20;51.50
52867;DHT22;38739;53.324;6.862;2023-06-14T13:37:55;31.90;51.00
52867;DHT22;38739;53.324;6.862;2023-06-14T13:40:21;31.50;52.00
52867;DHT22;38739;53.324;6.862;2023-06-14T13:42:47;31.80;53.30
52867;DHT22;38739;53.324;6.862;2023-06-14T13:45:14;32.00;51.50
52867;DHT22;38739;53.324;6.862;2023-06-14T13:47:41;31.90;51.20
52867;DHT22;38739;53.324;6.862;2023-06-14T13:50:07;32.00;52.10
52867;DHT22;38739;53.324;6.862;2023-06-14T13:52:32;32.10;51.00
52867;DHT22;38739;53.324;6.862;2023-06-14T13:54:58;32.30;51.20
52867;DHT22;38739;53.324;6.862;2023-06-14T13:57:24;32.50;51.70
52867;DHT22;38739;53.324;6.862;2023-06-14T13:59:49;32.90;51.00
52867;DHT22;38739;53.324;6.862;2023-06-14T14:02:15;33.00;50.30
52867;DHT22;38739;53.324;6.862;2023-06-14T14:04:41;32.80;49.80
52867;DHT22;38739;53.324;6.862;2023-06-14T14:07:07;32.20;50.60
52867;DHT22;38739;53.324;6.862;2023-06-14T14:09:34;31.80;50.20
52867;DHT22;38739;53.324;6.862;2023-06-14T14:12:00;31.40;52.10
52867;DHT22;38739;53.324;6.862;2023-06-14T14:14:28;31.40;53.90
52867;DHT22;38739;53.324;6.862;2023-06-14T14:16:53;31.30;52.30
52867;DHT22;38739;53.324;6.862;2023-06-14T14:19:20;31.20;52.90
52867;DHT22;38739;53.324;6.862;2023-06-14T14:21:46;31.10;53.20
52867;DHT22;38739;53.324;6.862;2023-06-14T14:24:12;31.10;52.50
52867;DHT22;38739;53.324;6.862;2023-06-14T14:26:39;31.10;52.50
52867;DHT22;38739;53.324;6.862;2023-06-14T14:29:05;31.40;53.30
52867;DHT22;38739;53.324;6.862;2023-06-14T14:31:31;31.80;52.40
52867;DHT22;38739;53.324;6.862;2023-06-14T14:33:56;31.80;51.80
52867;DHT22;38739;53.324;6.862;2023-06-14T14:36:22;31.80;51.70
52867;DHT22;38739;53.324;6.862;2023-06-14T14:38:48;32.00;51.40
52867;DHT22;38739;53.324;6.862;2023-06-14T14:41:14;32.10;51.60
52867;DHT22;38739;53.324;6.862;2023-06-14T14:43:39;31.90;52.50
52867;DHT22;38739;53.324;6.862;2023-06-14T14:46:05;31.70;51.70
52867;DHT22;38739;53.324;6.862;2023-06-14T14:48:31;31.70;50.90
52867;DHT22;38739;53.324;6.862;2023-06-14T14:50:57;31.90;52.30
52867;DHT22;38739;53.324;6.862;2023-06-14T14:53:23;32.00;52.70
52867;DHT22;38739;53.324;6.862;2023-06-14T14:55:49;31.90;52.00
52867;DHT22;38739;53.324;6.862;2023-06-14T14:58:15;31.90;51.30
52867;DHT22;38739;53.324;6.862;2023-06-14T15:00:47;32.00;52.10
52867;DHT22;38739;53.324;6.862;2023-06-14T15:03:13;31.80;52.40
52867;DHT22;38739;53.324;6.862;2023-06-14T15:05:40;31.80;52.20
52867;DHT22;38739;53.324;6.862;2023-06-14T15:08:05;31.50;51.20
52867;DHT22;38739;53.324;6.862;2023-06-14T15:10:37;31.50;51.20
52867;DHT22;38739;53.324;6.862;2023-06-14T15:13:03;31.10;49.20
52867;DHT22;38739;53.324;6.862;2023-06-14T15:15:29;31.00;50.50
52867;DHT22;38739;53.324;6.862;2023-06-14T15:17:54;31.00;51.70
52867;DHT22;38739;53.324;6.862;2023-06-14T15:20:20;31.20;52.80
52867;DHT22;38739;53.324;6.862;2023-06-14T15:22:46;31.30;53.10
52867;DHT22;38739;53.324;6.862;2023-06-14T15:25:11;31.30;53.30
52867;DHT22;38739;53.324;6.862;2023-06-14T15:27:37;31.10;52.80
52867;DHT22;38739;53.324;6.862;2023-06-14T15:30:03;30.80;53.70
52867;DHT22;38739;53.324;6.862;2023-06-14T15:32:30;30.60;54.60
52867;DHT22;38739;53.324;6.862;2023-06-14T15:34:56;30.80;54.50
52867;DHT22;38739;53.324;6.862;2023-06-14T15:37:21;30.80;53.60
52867;DHT22;38739;53.324;6.862;2023-06-14T15:39:47;31.00;54.40
52867;DHT22;38739;53.324;6.862;2023-06-14T15:42:13;31.00;53.10
52867;DHT22;38739;53.324;6.862;2023-06-14T15:44:38;30.80;53.00
52867;DHT22;38739;53.324;6.862;2023-06-14T15:47:04;30.80;54.30
52867;DHT22;38739;53.324;6.862;2023-06-14T15:49:30;30.90;54.80
52867;DHT22;38739;53.324;6.862;2023-06-14T15:51:56;30.90;55.40